createdAt,value
2018-08-17T00:00:14.139Z,92.10
2018-08-17T00:15:14.658Z,92.10
2018-08-17T00:24:14.614Z,92.60
2018-08-17T00:33:14.446Z,92.80
2018-08-17T00:45:14.568Z,92.90
2018-08-17T01:12:14.227Z,93.50
2018-08-17T01:48:14.022Z,94.90
2018-08-17T02:09:14.117Z,94.40
2018-08-17T02:18:14.767Z,95.00
2018-08-17T02:33:14.549Z,94.80
2018-08-17T02:39:14.523Z,95.20
2018-08-17T03:06:14.254Z,95.20
2018-08-17T03:30:14.065Z,95.60
2018-08-17T03:42:14.110Z,96.00
2018-08-17T03:57:14.039Z,96.20
2018-08-17T04:21:14.172Z,96.90
2018-08-17T04:30:14.124Z,97.10
2018-08-17T04:48:14.194Z,97.20
2018-08-17T04:59:49.712Z,98.20
2018-08-17T05:02:18.914Z,97.90
2018-08-17T05:05:14.593Z,97.90
2018-08-17T05:14:14.322Z,98.50
2018-08-17T05:26:14.160Z,98.60
2018-08-17T05:44:14.239Z,98.70
2018-08-17T05:53:14.105Z,99.20
2018-08-17T06:05:14.489Z,99.40
2018-08-17T06:35:15.506Z,98.70
2018-08-17T06:38:14.148Z,99.30
2018-08-17T06:49:44.544Z,99.40
2018-08-17T06:52:17.325Z,98.90
2018-08-17T06:55:15.321Z,99.40
2018-08-17T07:10:14.677Z,98.00
2018-08-17T07:22:14.394Z,98.10
2018-08-17T07:28:15.099Z,98.80
2018-08-17T07:34:14.676Z,98.70
2018-08-17T07:40:14.803Z,98.30
2018-08-17T07:46:14.779Z,97.80
2018-08-17T07:55:16.146Z,97.60
2018-08-17T08:07:14.610Z,97.10
2018-08-17T08:12:34.873Z,96.80
2018-08-17T08:15:16.672Z,96.80
2018-08-17T08:17:45.930Z,97.00
2018-08-17T08:21:33.335Z,96.90
2018-08-17T08:24:17.074Z,96.30
2018-08-17T08:27:15.001Z,96.00
2018-08-17T08:33:14.253Z,95.50
2018-08-17T08:39:14.607Z,95.60
2018-08-17T08:45:14.960Z,95.10
2018-08-17T11:24:14.782Z,70.10
2018-08-17T11:36:15.068Z,74.40
2018-08-17T11:42:14.691Z,72.60
2018-08-17T11:44:44.371Z,69.40
2018-08-17T11:47:19.442Z,67.10
2018-08-17T11:50:14.605Z,71.50
2018-08-17T11:59:14.502Z,67.20
2018-08-17T12:17:15.094Z,66.40
2018-08-17T12:32:14.599Z,64.70
2018-08-17T12:47:15.063Z,62.60
2018-08-17T12:56:14.860Z,66.60
2018-08-17T13:05:14.509Z,61.00
2018-08-17T13:10:43.786Z,64.40
2018-08-17T13:13:18.813Z,60.20
2018-08-17T13:16:19.422Z,61.30
2018-08-17T13:18:48.633Z,58.80
2018-08-17T13:21:17.802Z,59.60
2018-08-17T13:23:46.993Z,59.10
2018-08-17T13:26:16.156Z,58.80
2018-08-17T13:28:45.305Z,58.40
2018-08-17T13:31:14.473Z,59.30
2018-08-17T13:49:15.019Z,57.50
2018-08-17T13:57:58.153Z,58.30
2018-08-17T14:03:28.021Z,57.20
2018-08-17T14:06:16.033Z,56.70
2018-08-17T14:08:45.230Z,56.70
2018-08-17T14:11:14.463Z,56.50
2018-08-17T14:13:43.652Z,56.30
2018-08-17T14:16:18.893Z,56.80
2018-08-17T14:19:14.857Z,55.60
2018-08-17T14:30:43.642Z,55.30
2018-08-17T14:33:19.005Z,54.00
2018-08-17T14:36:15.022Z,53.80
2018-08-17T14:42:14.918Z,54.00
2018-08-17T14:57:35.550Z,54.40
2018-08-17T15:00:17.438Z,53.00
2018-08-17T15:03:15.934Z,52.70
2018-08-17T15:05:45.100Z,54.00
2018-08-17T15:08:14.436Z,56.40
2018-08-17T15:10:43.624Z,52.70
2018-08-17T15:13:12.929Z,53.70
2018-08-17T15:16:16.338Z,51.80
2018-08-17T15:22:15.039Z,53.40
2018-08-17T15:27:58.043Z,51.50
2018-08-17T15:33:28.359Z,52.80
2018-08-17T15:36:16.507Z,52.20
2018-08-17T15:39:14.521Z,52.40
2018-08-17T15:41:45.917Z,51.30
2018-08-17T15:47:16.111Z,51.80
2018-08-17T15:52:45.361Z,51.60
2018-08-17T15:55:14.757Z,51.50
2018-08-17T15:57:44.085Z,52.80
2018-08-17T16:00:18.732Z,50.50
2018-08-17T16:02:47.935Z,51.20
2018-08-17T16:05:17.241Z,50.30
2018-08-17T16:07:46.440Z,49.70
2018-08-17T16:10:16.468Z,50.20
2018-08-17T16:12:46.190Z,51.00
2018-08-17T16:15:15.490Z,50.30
2018-08-17T16:17:44.690Z,51.50
2018-08-17T16:20:14.233Z,51.80
2018-08-17T16:22:44.105Z,48.70
2018-08-17T16:25:19.001Z,49.90
2018-08-17T16:27:48.209Z,51.10
2018-08-17T16:30:17.383Z,51.00
2018-08-17T16:32:46.619Z,49.70
2018-08-17T16:35:17.645Z,49.60
2018-08-17T16:37:48.105Z,50.40
2018-08-17T16:40:21.836Z,49.70
2018-08-17T16:45:54.162Z,49.40
2018-08-17T16:48:23.343Z,49.60
2018-08-17T16:50:52.557Z,50.00
2018-08-17T16:53:21.773Z,50.10
2018-08-17T16:55:50.971Z,50.30
2018-08-17T16:58:20.226Z,50.80
2018-08-17T17:00:49.405Z,51.10
2018-08-17T17:03:18.664Z,50.90
2018-08-17T17:05:48.563Z,50.40
2018-08-17T17:08:17.764Z,50.20
2018-08-17T17:10:46.913Z,51.00
2018-08-17T17:13:17.926Z,49.90
2018-08-17T17:15:47.070Z,52.00
2018-08-17T17:18:16.246Z,51.90
2018-08-17T17:20:45.479Z,51.60
2018-08-17T17:23:14.708Z,51.50
2018-08-17T17:25:43.918Z,51.10
2018-08-17T17:28:13.077Z,51.80
2018-08-17T17:30:47.575Z,53.00
2018-08-17T17:33:16.762Z,53.10
2018-08-17T17:35:45.965Z,52.20
2018-08-17T17:38:15.185Z,53.10
2018-08-17T17:40:44.365Z,52.00
2018-08-17T17:43:19.130Z,53.50
2018-08-17T17:45:48.373Z,53.00
2018-08-17T17:48:17.570Z,52.90
2018-08-17T17:50:47.564Z,54.30
2018-08-17T17:53:16.865Z,52.70
2018-08-17T17:55:48.970Z,54.00
2018-08-17T17:58:19.196Z,54.00
2018-08-17T18:00:58.866Z,55.90
2018-08-17T18:03:29.321Z,55.70
2018-08-17T18:06:05.029Z,56.10
2018-08-17T18:08:34.268Z,55.40
2018-08-17T18:11:03.433Z,55.90
2018-08-17T18:13:32.637Z,54.30
2018-08-17T18:16:01.838Z,55.10
2018-08-17T18:18:31.069Z,56.30
2018-08-17T18:21:00.279Z,55.00
2018-08-17T18:23:29.437Z,56.10
2018-08-17T18:25:58.603Z,55.80
2018-08-17T18:28:27.804Z,56.10
2018-08-17T18:31:15.969Z,57.00
2018-08-17T18:33:45.224Z,59.40
2018-08-17T18:36:14.407Z,58.50
2018-08-17T18:38:43.604Z,58.00
2018-08-17T18:41:12.791Z,58.80
2018-08-17T18:43:41.961Z,58.40
2018-08-17T18:46:11.166Z,59.80
2018-08-17T18:48:40.358Z,60.00
2018-08-17T18:51:09.750Z,61.10
2018-08-17T18:53:39.069Z,61.50
2018-08-17T18:56:08.289Z,61.90
2018-08-17T18:58:37.533Z,62.30
2018-08-17T19:01:16.855Z,62.20
2018-08-17T19:03:46.156Z,62.70
2018-08-17T19:09:19.160Z,63.40
2018-08-17T19:11:48.411Z,63.70
2018-08-17T19:14:17.577Z,64.00
2018-08-17T19:16:46.807Z,64.30
2018-08-17T19:19:27.198Z,64.80
2018-08-17T19:21:56.371Z,65.00
2018-08-17T19:24:25.585Z,65.10
2018-08-17T19:26:55.486Z,65.50
2018-08-17T19:29:24.667Z,65.80
2018-08-17T19:31:59.102Z,66.10
2018-08-17T19:37:28.189Z,66.70
2018-08-17T19:39:57.383Z,67.00
2018-08-17T19:42:26.554Z,67.30
2018-08-17T19:44:55.785Z,67.60
2018-08-17T19:47:25.077Z,67.90
2018-08-17T19:49:54.277Z,68.10
2018-08-17T19:52:23.564Z,68.40
2018-08-17T19:54:52.745Z,68.80
2018-08-17T19:57:21.970Z,69.90
2018-08-17T19:59:51.164Z,69.30
2018-08-17T20:02:20.473Z,69.70
2018-08-17T20:04:49.649Z,70.00
2018-08-17T20:07:18.834Z,70.20
2018-08-17T20:10:15.026Z,70.60
2018-08-17T20:12:44.397Z,70.90
2018-08-17T20:15:13.736Z,71.10
2018-08-17T20:18:19.623Z,71.40
2018-08-17T20:20:48.824Z,71.80
2018-08-17T20:23:18.009Z,72.90
2018-08-17T20:25:47.407Z,72.60
2018-08-17T20:28:16.531Z,72.70
2018-08-17T20:30:45.714Z,73.10
2018-08-17T20:33:20.395Z,73.40
2018-08-17T20:35:50.198Z,73.80
2018-08-17T20:38:19.385Z,74.10
2018-08-17T20:40:48.699Z,74.30
2018-08-17T20:43:17.929Z,74.70
2018-08-17T20:45:47.139Z,74.90
2018-08-17T20:48:17.037Z,75.40
2018-08-17T20:50:46.239Z,75.60
2018-08-17T20:53:16.237Z,75.90
2018-08-17T20:55:46.414Z,76.10
2018-08-17T20:58:18.889Z,76.40
2018-08-17T21:00:48.060Z,76.70
2018-08-17T21:03:17.309Z,77.00
2018-08-17T21:05:46.522Z,76.70
2018-08-17T21:08:15.702Z,77.50
2018-08-17T21:10:44.886Z,77.90
2018-08-17T21:13:19.679Z,78.20
2018-08-17T21:15:48.823Z,78.40
2018-08-17T21:18:18.044Z,78.70
2018-08-17T21:24:06.769Z,79.30
2018-08-17T21:26:35.228Z,79.50
2018-08-17T21:29:04.350Z,80.00
2018-08-17T21:31:33.110Z,80.20
2018-08-17T21:34:16.228Z,80.50
2018-08-17T21:36:44.693Z,80.70
2018-08-17T21:39:15.444Z,81.20
2018-08-17T21:41:44.995Z,81.50
2018-08-17T21:44:14.653Z,81.60
2018-08-17T21:46:55.124Z,81.80
2018-08-17T21:49:24.800Z,82.10
2018-08-17T21:51:56.073Z,82.40
2018-08-17T21:54:24.873Z,82.70
2018-08-17T21:56:53.948Z,83.10
2018-08-17T21:59:22.360Z,83.40
2018-08-17T22:01:51.644Z,83.60
2018-08-17T22:04:20.816Z,84.10
2018-08-17T22:06:50.026Z,84.40
2018-08-17T22:09:36.550Z,84.50
2018-08-17T22:12:06.529Z,84.80
2018-08-17T22:14:35.953Z,85.10
2018-08-17T22:17:05.500Z,85.30
2018-08-17T22:19:39.126Z,85.60
2018-08-17T22:22:10.785Z,85.70
2018-08-17T22:24:45.282Z,86.00
2018-08-17T22:27:17.042Z,86.30
2018-08-17T22:30:15.038Z,86.50
2018-08-17T22:32:44.710Z,86.70
2018-08-17T22:35:14.540Z,86.90
2018-08-17T22:37:43.660Z,87.20
2018-08-17T22:40:12.882Z,87.40
2018-08-17T22:42:42.117Z,88.30
2018-08-17T22:45:11.301Z,87.80
2018-08-17T22:47:40.485Z,88.00
2018-08-17T22:50:10.054Z,88.20
2018-08-17T22:52:39.277Z,88.30
2018-08-17T22:55:09.942Z,88.50
2018-08-17T22:57:39.176Z,88.70
2018-08-17T23:00:21.441Z,88.80
2018-08-17T23:02:51.871Z,89.00
2018-08-17T23:05:23.514Z,89.30
2018-08-17T23:07:52.706Z,89.30
2018-08-17T23:10:22.994Z,89.40
2018-08-17T23:13:17.230Z,89.70
2018-08-17T23:15:46.420Z,89.90
2018-08-17T23:18:15.745Z,90.00
2018-08-17T23:20:44.952Z,90.10
2018-08-17T23:23:14.137Z,90.10
2018-08-17T23:25:43.340Z,90.20
2018-08-17T23:28:12.568Z,90.30
2018-08-17T23:30:41.782Z,90.40
2018-08-17T23:33:11.209Z,90.50
2018-08-17T23:35:40.414Z,90.50
2018-08-17T23:38:09.622Z,90.60
2018-08-17T23:40:38.809Z,90.70
2018-08-17T23:43:17.656Z,90.70
2018-08-17T23:45:46.873Z,90.90
2018-08-17T23:48:16.057Z,90.90
2018-08-17T23:50:45.222Z,91.00
2018-08-17T23:53:19.951Z,91.00
2018-08-17T23:55:49.130Z,91.10
2018-08-17T23:58:18.298Z,91.20
